createdAt,value
2023-02-03T00:00:03.271Z,0
2023-02-03T00:15:02.501Z,0
2023-02-03T00:30:02.977Z,0
2023-02-03T00:45:02.396Z,0
2023-02-03T01:00:02.837Z,0
2023-02-03T01:15:02.295Z,0
2023-02-03T01:30:02.697Z,0
2023-02-03T01:45:03.311Z,0
2023-02-03T02:00:02.564Z,0
2023-02-03T02:15:03.007Z,0
2023-02-03T02:30:02.461Z,0
2023-02-03T02:45:02.857Z,0
2023-02-03T03:00:02.313Z,0
2023-02-03T03:15:02.739Z,0
2023-02-03T03:30:03.333Z,0
2023-02-03T03:45:02.609Z,0
2023-02-03T04:00:03.063Z,0
2023-02-03T04:15:02.464Z,0
2023-02-03T04:30:02.921Z,0
2023-02-03T04:45:02.367Z,0
2023-02-03T05:00:02.801Z,0
2023-02-03T05:15:03.379Z,0
2023-02-03T05:45:03.365Z,0
2023-02-03T06:00:02.586Z,0
2023-02-03T06:15:03.004Z,0
2023-02-03T06:30:02.423Z,0
2023-02-03T06:45:02.867Z,0
2023-02-03T07:00:02.396Z,0
2023-02-03T07:15:02.736Z,0
2023-02-03T07:30:03.407Z,0
2023-02-03T07:45:02.596Z,0
2023-02-03T08:00:03.024Z,2
2023-02-03T08:15:02.494Z,3
2023-02-03T08:30:02.920Z,8
2023-02-03T08:45:04.972Z,7
2023-02-03T09:00:02.808Z,5
2023-02-03T09:15:03.455Z,5
2023-02-03T09:30:02.666Z,9
2023-02-03T09:45:03.117Z,7
2023-02-03T10:00:02.568Z,5
2023-02-03T10:15:03.009Z,2
2023-02-03T10:30:02.444Z,12
2023-02-03T10:45:02.901Z,23
2023-02-03T11:00:02.462Z,18
2023-02-03T11:15:02.731Z,36
2023-02-03T11:30:03.217Z,40
2023-02-03T11:45:02.612Z,87
2023-02-03T12:00:03.049Z,103
2023-02-03T12:15:02.494Z,178
2023-02-03T12:30:02.931Z,142
2023-02-03T12:45:02.502Z,58
2023-02-03T13:00:02.781Z,64
2023-02-03T13:15:03.419Z,101
2023-02-03T13:30:02.657Z,111
2023-02-03T13:45:03.121Z,49
2023-02-03T14:00:02.540Z,54
2023-02-03T14:15:02.996Z,38
2023-02-03T14:30:02.516Z,23
2023-02-03T14:45:02.841Z,39
2023-02-03T15:00:02.498Z,27
2023-02-03T15:15:02.717Z,52
2023-02-03T15:30:03.161Z,20
2023-02-03T15:45:02.615Z,7
2023-02-03T16:00:03.069Z,1
2023-02-03T16:15:02.551Z,0
2023-02-03T16:30:02.910Z,0
2023-02-03T16:45:02.529Z,0
2023-02-03T17:00:02.871Z,0
2023-02-03T17:15:02.251Z,0
2023-02-03T17:30:02.684Z,0
2023-02-03T18:15:02.962Z,0
2023-02-03T18:30:02.527Z,0
2023-02-03T18:45:02.830Z,0
2023-02-03T19:00:02.229Z,0
2023-02-03T19:15:02.692Z,0
2023-02-03T19:30:03.168Z,0
2023-02-03T19:45:02.602Z,0
2023-02-03T20:00:03.023Z,0
2023-02-03T20:15:02.586Z,0
2023-02-03T20:30:02.916Z,0
2023-02-03T20:45:02.559Z,0
2023-02-03T21:00:02.830Z,0
2023-02-03T21:15:03.267Z,0
2023-02-03T21:30:02.702Z,0
2023-02-03T21:45:03.131Z,0
2023-02-03T22:00:02.634Z,0
2023-02-03T22:15:02.998Z,0
2023-02-03T22:30:02.625Z,0
2023-02-03T22:45:02.889Z,0
2023-02-03T23:00:02.340Z,0
2023-02-03T23:30:02.199Z,0
2023-02-03T23:45:02.662Z,0
